sensor_id;sensor_type;location;lat;lon;timestamp;P1;durP1;ratioP1;P2;durP2;ratioP2
41927;SDS011;27616;51.420;6.788;2022-09-09T00:04:32;3.63;;;1.00;;
41927;SDS011;27616;51.420;6.788;2022-09-09T00:07:04;2.70;;;0.77;;
41927;SDS011;27616;51.420;6.788;2022-09-09T00:12:42;2.47;;;0.80;;
41927;SDS011;27616;51.420;6.788;2022-09-09T00:15:20;3.70;;;0.73;;
41927;SDS011;27616;51.420;6.788;2022-09-09T00:21:07;1.88;;;0.75;;
41927;SDS011;27616;51.420;6.788;2022-09-09T00:23:34;3.47;;;1.00;;
41927;SDS011;27616;51.420;6.788;2022-09-09T00:31:30;4.95;;;0.88;;
41927;SDS011;27616;51.420;6.788;2022-09-09T00:34:03;4.10;;;1.00;;
41927;SDS011;27616;51.420;6.788;2022-09-09T00:36:38;2.22;;;1.00;;
41927;SDS011;27616;51.420;6.788;2022-09-09T00:39:05;2.17;;;0.88;;
41927;SDS011;27616;51.420;6.788;2022-09-09T00:49:56;4.45;;;0.90;;
41927;SDS011;27616;51.420;6.788;2022-09-09T00:55:30;1.48;;;0.88;;
41927;SDS011;27616;51.420;6.788;2022-09-09T00:58:02;2.90;;;1.10;;
41927;SDS011;27616;51.420;6.788;2022-09-09T01:00:46;2.95;;;1.02;;
41927;SDS011;27616;51.420;6.788;2022-09-09T01:11:03;1.95;;;0.82;;
41927;SDS011;27616;51.420;6.788;2022-09-09T01:13:33;1.60;;;0.93;;
41927;SDS011;27616;51.420;6.788;2022-09-09T01:16:07;3.92;;;1.05;;
41927;SDS011;27616;51.420;6.788;2022-09-09T01:18:43;3.97;;;0.98;;
41927;SDS011;27616;51.420;6.788;2022-09-09T01:21:18;2.80;;;0.80;;
41927;SDS011;27616;51.420;6.788;2022-09-09T01:27:12;3.70;;;1.20;;
41927;SDS011;27616;51.420;6.788;2022-09-09T01:29:41;2.92;;;0.85;;
41927;SDS011;27616;51.420;6.788;2022-09-09T01:35:27;3.22;;;1.15;;
41927;SDS011;27616;51.420;6.788;2022-09-09T01:37:56;5.10;;;1.60;;
41927;SDS011;27616;51.420;6.788;2022-09-09T01:40:22;3.38;;;1.35;;
41927;SDS011;27616;51.420;6.788;2022-09-09T01:42:48;4.85;;;1.20;;
41927;SDS011;27616;51.420;6.788;2022-09-09T01:45:14;4.28;;;1.25;;
41927;SDS011;27616;51.420;6.788;2022-09-09T01:47:41;3.25;;;0.95;;
41927;SDS011;27616;51.420;6.788;2022-09-09T01:50:28;2.75;;;1.10;;
41927;SDS011;27616;51.420;6.788;2022-09-09T01:52:56;2.75;;;0.95;;
41927;SDS011;27616;51.420;6.788;2022-09-09T01:55:31;1.40;;;0.80;;
41927;SDS011;27616;51.420;6.788;2022-09-09T02:01:17;4.35;;;1.17;;
41927;SDS011;27616;51.420;6.788;2022-09-09T02:03:52;2.90;;;0.98;;
41927;SDS011;27616;51.420;6.788;2022-09-09T02:08:58;3.17;;;1.15;;
41927;SDS011;27616;51.420;6.788;2022-09-09T02:11:27;2.92;;;0.95;;
41927;SDS011;27616;51.420;6.788;2022-09-09T02:14:15;3.92;;;1.30;;
41927;SDS011;27616;51.420;6.788;2022-09-09T02:16:49;2.72;;;1.02;;
41927;SDS011;27616;51.420;6.788;2022-09-09T02:19:32;2.30;;;1.00;;
41927;SDS011;27616;51.420;6.788;2022-09-09T02:22:19;2.25;;;0.90;;
41927;SDS011;27616;51.420;6.788;2022-09-09T02:24:49;3.38;;;1.00;;
41927;SDS011;27616;51.420;6.788;2022-09-09T02:27:22;1.92;;;0.90;;
41927;SDS011;27616;51.420;6.788;2022-09-09T02:29:49;3.55;;;1.10;;
41927;SDS011;27616;51.420;6.788;2022-09-09T02:32:24;2.35;;;1.00;;
41927;SDS011;27616;51.420;6.788;2022-09-09T02:34:52;2.97;;;1.10;;
41927;SDS011;27616;51.420;6.788;2022-09-09T02:37:33;1.90;;;0.88;;
41927;SDS011;27616;51.420;6.788;2022-09-09T02:40:03;4.80;;;1.33;;
41927;SDS011;27616;51.420;6.788;2022-09-09T02:42:44;4.03;;;1.02;;
41927;SDS011;27616;51.420;6.788;2022-09-09T02:45:13;4.00;;;1.52;;
41927;SDS011;27616;51.420;6.788;2022-09-09T02:50:34;3.75;;;1.63;;
41927;SDS011;27616;51.420;6.788;2022-09-09T02:53:19;4.72;;;1.70;;
41927;SDS011;27616;51.420;6.788;2022-09-09T02:56:04;4.75;;;1.25;;
41927;SDS011;27616;51.420;6.788;2022-09-09T02:58:37;3.08;;;1.08;;
41927;SDS011;27616;51.420;6.788;2022-09-09T03:01:05;4.10;;;1.30;;
41927;SDS011;27616;51.420;6.788;2022-09-09T03:03:31;3.70;;;1.00;;
41927;SDS011;27616;51.420;6.788;2022-09-09T03:06:00;4.72;;;0.95;;
41927;SDS011;27616;51.420;6.788;2022-09-09T03:08:27;6.07;;;1.65;;
41927;SDS011;27616;51.420;6.788;2022-09-09T03:10:54;2.95;;;1.45;;
41927;SDS011;27616;51.420;6.788;2022-09-09T03:13:23;4.60;;;1.42;;
41927;SDS011;27616;51.420;6.788;2022-09-09T03:15:49;6.25;;;2.88;;
41927;SDS011;27616;51.420;6.788;2022-09-09T03:18:18;6.50;;;2.50;;
41927;SDS011;27616;51.420;6.788;2022-09-09T03:20:49;4.55;;;1.80;;
41927;SDS011;27616;51.420;6.788;2022-09-09T03:23:17;5.07;;;1.75;;
41927;SDS011;27616;51.420;6.788;2022-09-09T03:25:51;4.40;;;1.83;;
41927;SDS011;27616;51.420;6.788;2022-09-09T03:28:25;5.70;;;2.00;;
41927;SDS011;27616;51.420;6.788;2022-09-09T03:31:00;5.03;;;1.60;;
41927;SDS011;27616;51.420;6.788;2022-09-09T03:33:31;4.40;;;1.50;;
41927;SDS011;27616;51.420;6.788;2022-09-09T03:35:57;5.40;;;1.67;;
41927;SDS011;27616;51.420;6.788;2022-09-09T03:38:24;4.55;;;1.40;;
41927;SDS011;27616;51.420;6.788;2022-09-09T03:40:54;4.88;;;1.58;;
41927;SDS011;27616;51.420;6.788;2022-09-09T03:43:23;5.28;;;1.88;;
41927;SDS011;27616;51.420;6.788;2022-09-09T03:45:51;7.55;;;1.60;;
41927;SDS011;27616;51.420;6.788;2022-09-09T03:48:18;6.05;;;1.75;;
41927;SDS011;27616;51.420;6.788;2022-09-09T03:50:45;7.78;;;1.80;;
41927;SDS011;27616;51.420;6.788;2022-09-09T03:53:13;6.63;;;1.77;;
41927;SDS011;27616;51.420;6.788;2022-09-09T03:55:43;4.40;;;1.90;;
41927;SDS011;27616;51.420;6.788;2022-09-09T03:58:14;5.85;;;1.63;;
41927;SDS011;27616;51.420;6.788;2022-09-09T04:00:43;4.75;;;1.70;;
41927;SDS011;27616;51.420;6.788;2022-09-09T04:03:18;4.25;;;1.92;;
41927;SDS011;27616;51.420;6.788;2022-09-09T04:05:44;6.90;;;2.00;;
41927;SDS011;27616;51.420;6.788;2022-09-09T04:08:13;6.43;;;1.77;;
41927;SDS011;27616;51.420;6.788;2022-09-09T04:10:39;4.50;;;1.60;;
41927;SDS011;27616;51.420;6.788;2022-09-09T04:13:06;4.45;;;1.70;;
41927;SDS011;27616;51.420;6.788;2022-09-09T04:15:32;4.97;;;1.98;;
41927;SDS011;27616;51.420;6.788;2022-09-09T04:18:00;4.25;;;1.60;;
41927;SDS011;27616;51.420;6.788;2022-09-09T04:20:26;4.03;;;1.60;;
41927;SDS011;27616;51.420;6.788;2022-09-09T04:22:52;5.13;;;1.80;;
41927;SDS011;27616;51.420;6.788;2022-09-09T04:25:20;7.70;;;2.35;;
41927;SDS011;27616;51.420;6.788;2022-09-09T04:27:46;7.82;;;2.60;;
41927;SDS011;27616;51.420;6.788;2022-09-09T04:30:13;6.35;;;1.73;;
41927;SDS011;27616;51.420;6.788;2022-09-09T04:32:40;3.58;;;1.60;;
41927;SDS011;27616;51.420;6.788;2022-09-09T04:35:06;6.28;;;1.77;;
41927;SDS011;27616;51.420;6.788;2022-09-09T04:37:33;5.13;;;1.60;;
41927;SDS011;27616;51.420;6.788;2022-09-09T04:39:59;5.00;;;1.95;;
41927;SDS011;27616;51.420;6.788;2022-09-09T04:42:29;6.70;;;1.70;;
41927;SDS011;27616;51.420;6.788;2022-09-09T04:44:55;5.60;;;1.70;;
41927;SDS011;27616;51.420;6.788;2022-09-09T04:47:21;7.05;;;1.90;;
41927;SDS011;27616;51.420;6.788;2022-09-09T04:49:47;6.25;;;1.48;;
41927;SDS011;27616;51.420;6.788;2022-09-09T04:52:13;5.65;;;2.00;;
41927;SDS011;27616;51.420;6.788;2022-09-09T04:54:43;8.18;;;2.13;;
41927;SDS011;27616;51.420;6.788;2022-09-09T04:57:10;6.95;;;1.88;;
41927;SDS011;27616;51.420;6.788;2022-09-09T04:59:36;5.88;;;2.38;;
41927;SDS011;27616;51.420;6.788;2022-09-09T05:02:02;13.55;;;3.15;;
41927;SDS011;27616;51.420;6.788;2022-09-09T05:04:29;5.75;;;2.08;;
41927;SDS011;27616;51.420;6.788;2022-09-09T05:06:55;5.80;;;2.05;;
41927;SDS011;27616;51.420;6.788;2022-09-09T05:09:23;5.93;;;1.63;;
41927;SDS011;27616;51.420;6.788;2022-09-09T05:11:50;13.20;;;3.20;;
41927;SDS011;27616;51.420;6.788;2022-09-09T05:14:30;8.75;;;3.20;;
41927;SDS011;27616;51.420;6.788;2022-09-09T05:16:56;7.57;;;2.42;;
41927;SDS011;27616;51.420;6.788;2022-09-09T05:19:24;8.85;;;2.78;;
41927;SDS011;27616;51.420;6.788;2022-09-09T05:21:51;7.25;;;1.80;;
41927;SDS011;27616;51.420;6.788;2022-09-09T05:24:22;6.35;;;2.40;;
41927;SDS011;27616;51.420;6.788;2022-09-09T05:26:53;7.53;;;1.58;;
41927;SDS011;27616;51.420;6.788;2022-09-09T05:29:21;7.55;;;1.70;;
41927;SDS011;27616;51.420;6.788;2022-09-09T05:31:47;7.47;;;1.95;;
41927;SDS011;27616;51.420;6.788;2022-09-09T05:34:17;5.53;;;2.67;;
41927;SDS011;27616;51.420;6.788;2022-09-09T05:36:43;10.48;;;2.03;;
41927;SDS011;27616;51.420;6.788;2022-09-09T05:39:10;6.40;;;1.90;;
41927;SDS011;27616;51.420;6.788;2022-09-09T05:41:37;8.30;;;1.83;;
41927;SDS011;27616;51.420;6.788;2022-09-09T05:44:03;4.03;;;1.80;;
41927;SDS011;27616;51.420;6.788;2022-09-09T05:46:34;9.57;;;2.33;;
41927;SDS011;27616;51.420;6.788;2022-09-09T05:49:00;7.40;;;2.20;;
41927;SDS011;27616;51.420;6.788;2022-09-09T05:51:30;6.45;;;1.92;;
41927;SDS011;27616;51.420;6.788;2022-09-09T05:53:57;8.93;;;2.15;;
41927;SDS011;27616;51.420;6.788;2022-09-09T05:56:27;9.43;;;2.10;;
41927;SDS011;27616;51.420;6.788;2022-09-09T05:58:55;7.25;;;2.00;;
41927;SDS011;27616;51.420;6.788;2022-09-09T06:03:52;8.10;;;2.35;;
41927;SDS011;27616;51.420;6.788;2022-09-09T06:06:21;6.40;;;2.05;;
41927;SDS011;27616;51.420;6.788;2022-09-09T06:08:55;6.93;;;2.00;;
41927;SDS011;27616;51.420;6.788;2022-09-09T06:11:30;8.55;;;2.10;;
41927;SDS011;27616;51.420;6.788;2022-09-09T06:13:58;8.45;;;1.90;;
41927;SDS011;27616;51.420;6.788;2022-09-09T06:16:25;7.95;;;2.10;;
41927;SDS011;27616;51.420;6.788;2022-09-09T06:18:53;6.33;;;1.97;;
41927;SDS011;27616;51.420;6.788;2022-09-09T06:21:21;7.70;;;2.00;;
41927;SDS011;27616;51.420;6.788;2022-09-09T06:26:29;7.25;;;2.08;;
41927;SDS011;27616;51.420;6.788;2022-09-09T06:29:00;6.45;;;1.63;;
41927;SDS011;27616;51.420;6.788;2022-09-09T06:31:29;6.57;;;1.90;;
41927;SDS011;27616;51.420;6.788;2022-09-09T06:34:00;6.82;;;1.85;;
41927;SDS011;27616;51.420;6.788;2022-09-09T06:36:29;8.47;;;2.10;;
41927;SDS011;27616;51.420;6.788;2022-09-09T06:38:59;8.02;;;2.10;;
41927;SDS011;27616;51.420;6.788;2022-09-09T06:41:29;6.68;;;1.77;;
41927;SDS011;27616;51.420;6.788;2022-09-09T06:43:56;6.80;;;2.10;;
41927;SDS011;27616;51.420;6.788;2022-09-09T06:46:31;5.25;;;1.88;;
41927;SDS011;27616;51.420;6.788;2022-09-09T06:48:59;7.85;;;1.90;;
41927;SDS011;27616;51.420;6.788;2022-09-09T06:51:30;7.70;;;1.67;;
41927;SDS011;27616;51.420;6.788;2022-09-09T06:53:58;8.82;;;2.70;;
41927;SDS011;27616;51.420;6.788;2022-09-09T06:56:29;14.10;;;2.60;;
41927;SDS011;27616;51.420;6.788;2022-09-09T06:59:05;5.95;;;1.80;;
41927;SDS011;27616;51.420;6.788;2022-09-09T07:01:34;6.20;;;1.85;;
41927;SDS011;27616;51.420;6.788;2022-09-09T07:04:05;6.07;;;1.80;;
41927;SDS011;27616;51.420;6.788;2022-09-09T07:06:35;6.28;;;1.90;;
41927;SDS011;27616;51.420;6.788;2022-09-09T07:09:07;7.30;;;1.50;;
41927;SDS011;27616;51.420;6.788;2022-09-09T07:11:39;5.25;;;1.33;;
41927;SDS011;27616;51.420;6.788;2022-09-09T07:16:33;6.45;;;1.60;;
41927;SDS011;27616;51.420;6.788;2022-09-09T07:21:29;7.85;;;2.05;;
41927;SDS011;27616;51.420;6.788;2022-09-09T07:23:56;5.15;;;1.63;;
41927;SDS011;27616;51.420;6.788;2022-09-09T07:26:25;7.05;;;1.42;;
41927;SDS011;27616;51.420;6.788;2022-09-09T07:28:54;6.40;;;1.70;;
41927;SDS011;27616;51.420;6.788;2022-09-09T07:31:26;8.27;;;1.50;;
41927;SDS011;27616;51.420;6.788;2022-09-09T07:33:56;9.77;;;1.50;;
41927;SDS011;27616;51.420;6.788;2022-09-09T07:36:24;10.32;;;1.67;;
41927;SDS011;27616;51.420;6.788;2022-09-09T07:38:57;9.73;;;2.03;;
41927;SDS011;27616;51.420;6.788;2022-09-09T07:41:26;11.60;;;1.77;;
41927;SDS011;27616;51.420;6.788;2022-09-09T07:43:55;6.32;;;1.80;;
41927;SDS011;27616;51.420;6.788;2022-09-09T07:46:23;9.07;;;1.90;;
41927;SDS011;27616;51.420;6.788;2022-09-09T07:48:52;7.63;;;1.80;;
41927;SDS011;27616;51.420;6.788;2022-09-09T07:51:28;7.20;;;1.77;;
41927;SDS011;27616;51.420;6.788;2022-09-09T07:54:02;9.07;;;2.10;;
41927;SDS011;27616;51.420;6.788;2022-09-09T07:56:31;8.00;;;1.90;;
41927;SDS011;27616;51.420;6.788;2022-09-09T07:58:59;5.93;;;1.33;;
41927;SDS011;27616;51.420;6.788;2022-09-09T08:01:30;8.00;;;1.58;;
41927;SDS011;27616;51.420;6.788;2022-09-09T08:04:02;5.65;;;1.52;;
41927;SDS011;27616;51.420;6.788;2022-09-09T08:06:34;5.85;;;1.70;;
41927;SDS011;27616;51.420;6.788;2022-09-09T08:09:03;7.35;;;1.75;;
41927;SDS011;27616;51.420;6.788;2022-09-09T08:11:31;8.23;;;1.90;;
41927;SDS011;27616;51.420;6.788;2022-09-09T08:13:59;6.75;;;1.45;;
41927;SDS011;27616;51.420;6.788;2022-09-09T08:16:26;6.53;;;1.70;;
41927;SDS011;27616;51.420;6.788;2022-09-09T08:19:04;8.27;;;1.80;;
41927;SDS011;27616;51.420;6.788;2022-09-09T08:21:34;9.00;;;1.73;;
41927;SDS011;27616;51.420;6.788;2022-09-09T08:24:03;6.88;;;1.40;;
41927;SDS011;27616;51.420;6.788;2022-09-09T08:26:34;9.55;;;2.10;;
41927;SDS011;27616;51.420;6.788;2022-09-09T08:29:10;8.65;;;1.88;;
41927;SDS011;27616;51.420;6.788;2022-09-09T08:34:06;6.60;;;1.38;;
41927;SDS011;27616;51.420;6.788;2022-09-09T08:36:35;8.65;;;1.40;;
41927;SDS011;27616;51.420;6.788;2022-09-09T08:39:09;7.47;;;1.50;;
41927;SDS011;27616;51.420;6.788;2022-09-09T08:52:36;6.30;;;1.30;;
41927;SDS011;27616;51.420;6.788;2022-09-09T08:55:05;5.65;;;1.38;;
41927;SDS011;27616;51.420;6.788;2022-09-09T08:57:46;4.40;;;1.13;;
41927;SDS011;27616;51.420;6.788;2022-09-09T09:00:15;6.65;;;1.52;;
41927;SDS011;27616;51.420;6.788;2022-09-09T09:11:00;7.60;;;1.27;;
41927;SDS011;27616;51.420;6.788;2022-09-09T09:21:13;3.08;;;1.10;;
41927;SDS011;27616;51.420;6.788;2022-09-09T09:23:53;7.18;;;1.45;;
41927;SDS011;27616;51.420;6.788;2022-09-09T09:26:22;5.90;;;1.40;;
41927;SDS011;27616;51.420;6.788;2022-09-09T09:28:52;3.20;;;0.93;;
41927;SDS011;27616;51.420;6.788;2022-09-09T09:31:22;6.00;;;1.58;;
41927;SDS011;27616;51.420;6.788;2022-09-09T09:33:55;4.82;;;1.40;;
41927;SDS011;27616;51.420;6.788;2022-09-09T09:36:38;7.75;;;1.70;;
41927;SDS011;27616;51.420;6.788;2022-09-09T09:39:10;7.40;;;1.30;;
41927;SDS011;27616;51.420;6.788;2022-09-09T09:41:48;6.65;;;1.58;;
41927;SDS011;27616;51.420;6.788;2022-09-09T09:47:10;5.97;;;1.42;;
41927;SDS011;27616;51.420;6.788;2022-09-09T09:49:36;5.82;;;1.40;;
41927;SDS011;27616;51.420;6.788;2022-09-09T09:52:03;5.80;;;1.30;;
41927;SDS011;27616;51.420;6.788;2022-09-09T09:54:31;3.90;;;1.10;;
41927;SDS011;27616;51.420;6.788;2022-09-09T09:57:12;6.65;;;1.55;;
41927;SDS011;27616;51.420;6.788;2022-09-09T09:59:45;5.43;;;1.77;;
41927;SDS011;27616;51.420;6.788;2022-09-09T10:04:44;10.05;;;1.95;;
41927;SDS011;27616;51.420;6.788;2022-09-09T10:07:20;7.72;;;1.58;;
41927;SDS011;27616;51.420;6.788;2022-09-09T10:09:54;2.95;;;1.00;;
41927;SDS011;27616;51.420;6.788;2022-09-09T10:15:24;5.07;;;1.10;;
41927;SDS011;27616;51.420;6.788;2022-09-09T10:18:08;4.10;;;1.27;;
41927;SDS011;27616;51.420;6.788;2022-09-09T10:26:32;6.72;;;1.35;;
41927;SDS011;27616;51.420;6.788;2022-09-09T10:29:31;5.43;;;1.25;;
41927;SDS011;27616;51.420;6.788;2022-09-09T10:48:35;4.10;;;1.13;;
41927;SDS011;27616;51.420;6.788;2022-09-09T10:56:40;4.22;;;1.00;;
41927;SDS011;27616;51.420;6.788;2022-09-09T10:59:13;5.80;;;1.20;;
41927;SDS011;27616;51.420;6.788;2022-09-09T11:01:52;5.35;;;1.17;;
41927;SDS011;27616;51.420;6.788;2022-09-09T11:04:29;4.68;;;1.30;;
41927;SDS011;27616;51.420;6.788;2022-09-09T11:07:00;3.53;;;0.80;;
41927;SDS011;27616;51.420;6.788;2022-09-09T11:09:32;4.35;;;1.45;;
41927;SDS011;27616;51.420;6.788;2022-09-09T11:12:06;3.65;;;0.90;;
41927;SDS011;27616;51.420;6.788;2022-09-09T11:14:48;4.05;;;0.85;;
41927;SDS011;27616;51.420;6.788;2022-09-09T11:17:30;4.53;;;0.90;;
41927;SDS011;27616;51.420;6.788;2022-09-09T11:20:05;4.10;;;0.80;;
41927;SDS011;27616;51.420;6.788;2022-09-09T11:22:37;3.58;;;0.98;;
41927;SDS011;27616;51.420;6.788;2022-09-09T11:38:45;4.30;;;0.90;;
41927;SDS011;27616;51.420;6.788;2022-09-09T11:41:16;5.30;;;0.82;;
41927;SDS011;27616;51.420;6.788;2022-09-09T11:43:52;4.05;;;0.88;;
41927;SDS011;27616;51.420;6.788;2022-09-09T11:46:31;4.28;;;0.80;;
41927;SDS011;27616;51.420;6.788;2022-09-09T11:49:03;3.60;;;0.85;;
41927;SDS011;27616;51.420;6.788;2022-09-09T11:51:31;6.03;;;1.00;;
41927;SDS011;27616;51.420;6.788;2022-09-09T11:56:43;4.82;;;0.88;;
41927;SDS011;27616;51.420;6.788;2022-09-09T11:59:20;4.40;;;0.70;;
41927;SDS011;27616;51.420;6.788;2022-09-09T12:01:49;2.20;;;0.70;;
41927;SDS011;27616;51.420;6.788;2022-09-09T12:06:59;2.92;;;0.77;;
41927;SDS011;27616;51.420;6.788;2022-09-09T12:19:41;5.50;;;0.82;;
41927;SDS011;27616;51.420;6.788;2022-09-09T12:22:11;4.18;;;0.75;;
41927;SDS011;27616;51.420;6.788;2022-09-09T12:27:58;7.25;;;1.40;;
41927;SDS011;27616;51.420;6.788;2022-09-09T12:30:31;5.15;;;1.15;;
41927;SDS011;27616;51.420;6.788;2022-09-09T12:33:20;4.85;;;1.10;;
41927;SDS011;27616;51.420;6.788;2022-09-09T12:35:56;4.18;;;1.98;;
41927;SDS011;27616;51.420;6.788;2022-09-09T12:41:02;6.07;;;1.92;;
41927;SDS011;27616;51.420;6.788;2022-09-09T12:43:28;7.30;;;2.35;;
41927;SDS011;27616;51.420;6.788;2022-09-09T12:46:04;5.63;;;1.40;;
41927;SDS011;27616;51.420;6.788;2022-09-09T12:48:37;4.35;;;1.50;;
41927;SDS011;27616;51.420;6.788;2022-09-09T12:51:19;10.63;;;2.55;;
41927;SDS011;27616;51.420;6.788;2022-09-09T12:53:51;8.40;;;3.10;;
41927;SDS011;27616;51.420;6.788;2022-09-09T12:56:25;7.70;;;2.90;;
41927;SDS011;27616;51.420;6.788;2022-09-09T12:58:54;7.78;;;2.58;;
41927;SDS011;27616;51.420;6.788;2022-09-09T13:01:31;8.03;;;2.90;;
41927;SDS011;27616;51.420;6.788;2022-09-09T13:04:00;8.32;;;2.55;;
41927;SDS011;27616;51.420;6.788;2022-09-09T13:06:29;4.90;;;1.45;;
41927;SDS011;27616;51.420;6.788;2022-09-09T13:08:57;5.72;;;2.00;;
41927;SDS011;27616;51.420;6.788;2022-09-09T13:11:35;5.93;;;1.58;;
41927;SDS011;27616;51.420;6.788;2022-09-09T13:14:04;5.60;;;1.80;;
41927;SDS011;27616;51.420;6.788;2022-09-09T13:16:34;5.53;;;2.17;;
41927;SDS011;27616;51.420;6.788;2022-09-09T13:19:02;9.30;;;2.70;;
41927;SDS011;27616;51.420;6.788;2022-09-09T13:21:38;9.63;;;3.20;;
41927;SDS011;27616;51.420;6.788;2022-09-09T13:24:06;7.75;;;2.75;;
41927;SDS011;27616;51.420;6.788;2022-09-09T13:27:00;6.28;;;1.90;;
41927;SDS011;27616;51.420;6.788;2022-09-09T13:29:27;6.20;;;2.20;;
41927;SDS011;27616;51.420;6.788;2022-09-09T13:31:53;5.60;;;1.98;;
41927;SDS011;27616;51.420;6.788;2022-09-09T13:34:29;5.70;;;1.52;;
41927;SDS011;27616;51.420;6.788;2022-09-09T13:37:00;5.75;;;1.30;;
41927;SDS011;27616;51.420;6.788;2022-09-09T13:39:34;4.13;;;1.48;;
41927;SDS011;27616;51.420;6.788;2022-09-09T13:42:01;5.05;;;1.38;;
41927;SDS011;27616;51.420;6.788;2022-09-09T13:44:35;3.38;;;1.00;;
41927;SDS011;27616;51.420;6.788;2022-09-09T13:47:17;3.25;;;1.15;;
41927;SDS011;27616;51.420;6.788;2022-09-09T13:49:44;2.72;;;0.90;;
41927;SDS011;27616;51.420;6.788;2022-09-09T13:52:12;3.72;;;1.27;;
41927;SDS011;27616;51.420;6.788;2022-09-09T13:54:40;3.72;;;1.30;;
41927;SDS011;27616;51.420;6.788;2022-09-09T13:57:16;4.35;;;1.13;;
41927;SDS011;27616;51.420;6.788;2022-09-09T13:59:47;2.30;;;0.90;;
41927;SDS011;27616;51.420;6.788;2022-09-09T14:02:14;5.00;;;1.30;;
41927;SDS011;27616;51.420;6.788;2022-09-09T14:04:42;3.20;;;1.20;;
41927;SDS011;27616;51.420;6.788;2022-09-09T14:07:14;6.65;;;1.38;;
41927;SDS011;27616;51.420;6.788;2022-09-09T14:09:41;4.35;;;1.23;;
41927;SDS011;27616;51.420;6.788;2022-09-09T14:12:09;3.08;;;0.90;;
41927;SDS011;27616;51.420;6.788;2022-09-09T14:14:39;2.80;;;1.00;;
41927;SDS011;27616;51.420;6.788;2022-09-09T14:17:04;2.63;;;1.13;;
41927;SDS011;27616;51.420;6.788;2022-09-09T14:19:31;4.25;;;1.10;;
41927;SDS011;27616;51.420;6.788;2022-09-09T14:21:57;5.75;;;1.20;;
41927;SDS011;27616;51.420;6.788;2022-09-09T14:24:23;4.53;;;1.00;;
41927;SDS011;27616;51.420;6.788;2022-09-09T14:26:50;5.25;;;1.83;;
41927;SDS011;27616;51.420;6.788;2022-09-09T14:29:16;3.78;;;1.23;;
41927;SDS011;27616;51.420;6.788;2022-09-09T14:31:42;5.05;;;1.30;;
41927;SDS011;27616;51.420;6.788;2022-09-09T14:34:07;5.28;;;1.52;;
41927;SDS011;27616;51.420;6.788;2022-09-09T14:36:36;4.47;;;1.17;;
41927;SDS011;27616;51.420;6.788;2022-09-09T14:39:02;7.75;;;1.90;;
41927;SDS011;27616;51.420;6.788;2022-09-09T14:41:29;9.07;;;1.80;;
41927;SDS011;27616;51.420;6.788;2022-09-09T14:43:55;4.93;;;0.98;;
41927;SDS011;27616;51.420;6.788;2022-09-09T14:46:22;2.75;;;0.80;;
41927;SDS011;27616;51.420;6.788;2022-09-09T14:48:48;2.45;;;0.70;;
41927;SDS011;27616;51.420;6.788;2022-09-09T14:51:17;2.22;;;0.73;;
41927;SDS011;27616;51.420;6.788;2022-09-09T14:53:50;2.70;;;0.60;;
41927;SDS011;27616;51.420;6.788;2022-09-09T14:56:18;1.73;;;0.68;;
41927;SDS011;27616;51.420;6.788;2022-09-09T15:01:14;1.25;;;0.80;;
41927;SDS011;27616;51.420;6.788;2022-09-09T15:03:42;2.05;;;0.70;;
41927;SDS011;27616;51.420;6.788;2022-09-09T15:06:14;2.95;;;0.88;;
41927;SDS011;27616;51.420;6.788;2022-09-09T15:08:42;2.40;;;0.90;;
41927;SDS011;27616;51.420;6.788;2022-09-09T15:11:09;3.95;;;1.70;;
41927;SDS011;27616;51.420;6.788;2022-09-09T15:13:37;4.20;;;1.75;;
41927;SDS011;27616;51.420;6.788;2022-09-09T15:16:05;5.25;;;2.20;;
41927;SDS011;27616;51.420;6.788;2022-09-09T15:18:33;3.78;;;1.55;;
41927;SDS011;27616;51.420;6.788;2022-09-09T15:21:04;3.53;;;1.45;;
41927;SDS011;27616;51.420;6.788;2022-09-09T15:23:33;3.05;;;1.23;;
41927;SDS011;27616;51.420;6.788;2022-09-09T15:26:00;2.75;;;1.25;;
41927;SDS011;27616;51.420;6.788;2022-09-09T15:28:27;3.67;;;1.45;;
41927;SDS011;27616;51.420;6.788;2022-09-09T15:30:53;2.38;;;0.90;;
41927;SDS011;27616;51.420;6.788;2022-09-09T15:33:20;3.47;;;1.05;;
41927;SDS011;27616;51.420;6.788;2022-09-09T15:35:47;2.72;;;1.25;;
41927;SDS011;27616;51.420;6.788;2022-09-09T15:38:14;5.45;;;3.15;;
41927;SDS011;27616;51.420;6.788;2022-09-09T15:40:42;2.63;;;1.20;;
41927;SDS011;27616;51.420;6.788;2022-09-09T15:43:08;2.75;;;0.80;;
41927;SDS011;27616;51.420;6.788;2022-09-09T15:45:38;3.30;;;1.00;;
41927;SDS011;27616;51.420;6.788;2022-09-09T15:48:04;1.75;;;0.77;;
41927;SDS011;27616;51.420;6.788;2022-09-09T15:50:30;1.83;;;0.80;;
41927;SDS011;27616;51.420;6.788;2022-09-09T15:52:58;2.88;;;0.88;;
41927;SDS011;27616;51.420;6.788;2022-09-09T15:55:24;1.10;;;0.63;;
41927;SDS011;27616;51.420;6.788;2022-09-09T15:57:50;1.42;;;0.70;;
41927;SDS011;27616;51.420;6.788;2022-09-09T16:00:20;2.83;;;0.80;;
41927;SDS011;27616;51.420;6.788;2022-09-09T16:02:48;2.80;;;0.93;;
41927;SDS011;27616;51.420;6.788;2022-09-09T16:05:14;3.40;;;0.82;;
41927;SDS011;27616;51.420;6.788;2022-09-09T16:07:40;2.97;;;0.80;;
41927;SDS011;27616;51.420;6.788;2022-09-09T16:10:07;2.30;;;0.70;;
41927;SDS011;27616;51.420;6.788;2022-09-09T16:12:34;2.13;;;0.90;;
41927;SDS011;27616;51.420;6.788;2022-09-09T16:15:00;2.65;;;0.85;;
41927;SDS011;27616;51.420;6.788;2022-09-09T16:17:26;2.55;;;0.90;;
41927;SDS011;27616;51.420;6.788;2022-09-09T16:19:52;3.50;;;1.10;;
41927;SDS011;27616;51.420;6.788;2022-09-09T16:22:22;2.67;;;1.10;;
41927;SDS011;27616;51.420;6.788;2022-09-09T16:24:49;1.92;;;0.98;;
41927;SDS011;27616;51.420;6.788;2022-09-09T16:27:15;2.45;;;0.80;;
41927;SDS011;27616;51.420;6.788;2022-09-09T16:29:41;2.28;;;0.80;;
41927;SDS011;27616;51.420;6.788;2022-09-09T16:32:07;2.40;;;0.80;;
41927;SDS011;27616;51.420;6.788;2022-09-09T16:34:33;2.53;;;0.82;;
41927;SDS011;27616;51.420;6.788;2022-09-09T16:36:59;3.63;;;0.90;;
41927;SDS011;27616;51.420;6.788;2022-09-09T16:39:27;2.50;;;0.90;;
41927;SDS011;27616;51.420;6.788;2022-09-09T16:41:53;4.03;;;1.10;;
41927;SDS011;27616;51.420;6.788;2022-09-09T16:44:18;2.70;;;1.23;;
41927;SDS011;27616;51.420;6.788;2022-09-09T16:46:45;4.60;;;1.52;;
41927;SDS011;27616;51.420;6.788;2022-09-09T16:49:13;3.25;;;1.00;;
41927;SDS011;27616;51.420;6.788;2022-09-09T16:51:45;4.22;;;1.10;;
41927;SDS011;27616;51.420;6.788;2022-09-09T16:54:12;4.25;;;1.30;;
41927;SDS011;27616;51.420;6.788;2022-09-09T16:56:41;3.15;;;0.98;;
41927;SDS011;27616;51.420;6.788;2022-09-09T16:59:12;6.97;;;1.30;;
41927;SDS011;27616;51.420;6.788;2022-09-09T17:01:41;4.32;;;1.45;;
41927;SDS011;27616;51.420;6.788;2022-09-09T17:04:15;4.07;;;1.40;;
41927;SDS011;27616;51.420;6.788;2022-09-09T17:06:46;4.00;;;1.45;;
41927;SDS011;27616;51.420;6.788;2022-09-09T17:09:14;3.20;;;1.38;;
41927;SDS011;27616;51.420;6.788;2022-09-09T17:11:41;3.55;;;1.30;;
41927;SDS011;27616;51.420;6.788;2022-09-09T17:14:08;3.97;;;1.35;;
41927;SDS011;27616;51.420;6.788;2022-09-09T17:16:36;5.22;;;1.60;;
41927;SDS011;27616;51.420;6.788;2022-09-09T17:19:04;5.22;;;1.63;;
41927;SDS011;27616;51.420;6.788;2022-09-09T17:21:31;3.92;;;1.35;;
41927;SDS011;27616;51.420;6.788;2022-09-09T17:23:57;5.38;;;1.45;;
41927;SDS011;27616;51.420;6.788;2022-09-09T17:26:25;2.97;;;1.20;;
41927;SDS011;27616;51.420;6.788;2022-09-09T17:28:53;6.00;;;1.75;;
41927;SDS011;27616;51.420;6.788;2022-09-09T17:31:21;4.20;;;1.20;;
41927;SDS011;27616;51.420;6.788;2022-09-09T17:33:48;4.13;;;1.25;;
41927;SDS011;27616;51.420;6.788;2022-09-09T17:38:43;4.85;;;1.13;;
41927;SDS011;27616;51.420;6.788;2022-09-09T17:41:10;3.50;;;1.35;;
41927;SDS011;27616;51.420;6.788;2022-09-09T17:43:42;4.85;;;1.33;;
41927;SDS011;27616;51.420;6.788;2022-09-09T17:46:10;2.28;;;1.10;;
41927;SDS011;27616;51.420;6.788;2022-09-09T17:48:47;5.10;;;1.20;;
41927;SDS011;27616;51.420;6.788;2022-09-09T17:51:20;4.10;;;1.73;;